createdAt,value
2019-03-27T00:00:16.379Z,0.00
2019-03-27T00:01:16.375Z,0.00
2019-03-27T00:02:16.368Z,0.00
2019-03-27T00:03:16.389Z,0.00
2019-03-27T00:04:16.327Z,0.00
2019-03-27T00:05:16.317Z,0.00
2019-03-27T00:06:16.322Z,0.00
2019-03-27T00:07:16.308Z,0.00
2019-03-27T00:08:16.313Z,0.00
2019-03-27T00:09:16.314Z,0.00
2019-03-27T00:10:16.257Z,0.00
2019-03-27T00:11:16.492Z,0.00
2019-03-27T00:12:16.254Z,0.00
2019-03-27T00:13:17.053Z,0.00
2019-03-27T00:14:16.237Z,0.00
2019-03-27T00:15:16.218Z,0.00
2019-03-27T00:16:16.191Z,0.00
2019-03-27T00:17:16.184Z,0.00
2019-03-27T00:18:16.186Z,0.00
2019-03-27T00:19:16.267Z,0.00
2019-03-27T00:20:16.172Z,0.00
2019-03-27T00:21:16.143Z,0.00
2019-03-27T00:22:16.123Z,0.00
2019-03-27T00:23:16.122Z,0.00
2019-03-27T00:24:16.126Z,0.00
2019-03-27T00:25:16.117Z,0.00
2019-03-27T00:26:16.081Z,0.00
2019-03-27T00:27:16.081Z,0.00
2019-03-27T00:28:16.063Z,0.00
2019-03-27T00:29:16.050Z,0.00
2019-03-27T00:30:16.061Z,0.00
2019-03-27T00:31:16.046Z,0.00
2019-03-27T00:32:16.023Z,0.00
2019-03-27T00:33:16.009Z,0.00
2019-03-27T00:34:15.995Z,0.00
2019-03-27T00:35:16.019Z,0.00
2019-03-27T00:36:15.982Z,0.00
2019-03-27T00:37:15.986Z,0.00
2019-03-27T00:38:15.952Z,0.00
2019-03-27T00:39:15.945Z,0.00
2019-03-27T00:40:15.929Z,0.00
2019-03-27T00:41:15.934Z,0.00
2019-03-27T00:42:15.921Z,0.00
2019-03-27T00:43:16.002Z,0.00
2019-03-27T00:44:15.883Z,0.00
2019-03-27T00:45:25.846Z,0.00
2019-03-27T00:46:16.894Z,0.00
2019-03-27T00:47:15.872Z,0.00
2019-03-27T00:48:15.860Z,0.00
2019-03-27T00:49:15.852Z,0.00
2019-03-27T00:50:15.830Z,0.00
2019-03-27T00:51:15.817Z,0.00
2019-03-27T00:52:15.812Z,0.00
2019-03-27T00:53:15.794Z,0.00
2019-03-27T00:54:15.788Z,0.00
2019-03-27T00:55:15.760Z,0.00
2019-03-27T00:56:15.756Z,0.00
2019-03-27T00:57:15.764Z,0.00
2019-03-27T00:58:15.743Z,0.00
2019-03-27T00:59:15.749Z,0.00
2019-03-27T01:00:15.723Z,0.00
2019-03-27T01:01:15.695Z,0.00
2019-03-27T01:02:15.688Z,0.00
2019-03-27T01:03:15.692Z,0.00
2019-03-27T01:04:15.679Z,0.00
2019-03-27T01:05:15.665Z,0.00
2019-03-27T01:06:15.654Z,0.00
2019-03-27T01:07:15.626Z,0.00
2019-03-27T01:08:15.632Z,0.00
2019-03-27T01:09:15.606Z,0.00
2019-03-27T01:10:15.621Z,0.00
2019-03-27T01:11:15.595Z,0.00
2019-03-27T01:12:15.573Z,0.00
2019-03-27T01:13:15.567Z,0.00
2019-03-27T01:14:15.556Z,0.00
2019-03-27T01:15:15.541Z,0.00
2019-03-27T01:16:15.554Z,0.00
2019-03-27T01:17:15.540Z,0.00
2019-03-27T01:18:15.506Z,0.00
2019-03-27T01:19:15.580Z,0.00
2019-03-27T01:20:15.497Z,0.00
2019-03-27T01:21:15.479Z,0.00
2019-03-27T01:22:15.492Z,0.00
2019-03-27T01:23:15.473Z,0.00
2019-03-27T01:24:15.475Z,0.00
2019-03-27T01:25:15.437Z,0.00
2019-03-27T01:26:15.418Z,0.00
2019-03-27T01:27:15.411Z,0.00
2019-03-27T01:28:15.414Z,0.00
2019-03-27T01:29:15.400Z,0.00
2019-03-27T01:30:15.410Z,0.00
2019-03-27T01:31:15.412Z,0.00
2019-03-27T01:32:15.353Z,0.00
2019-03-27T01:33:15.349Z,0.00
2019-03-27T01:34:15.361Z,0.00
2019-03-27T01:35:15.345Z,0.00
2019-03-27T01:36:15.307Z,0.00
2019-03-27T01:37:15.306Z,0.00
2019-03-27T01:38:15.284Z,0.00
2019-03-27T01:39:15.285Z,0.00
2019-03-27T01:40:15.322Z,0.00
2019-03-27T01:41:15.274Z,0.00
2019-03-27T01:42:15.245Z,0.00
2019-03-27T01:43:15.260Z,0.00
2019-03-27T01:44:15.219Z,0.00
2019-03-27T01:45:15.220Z,0.00
2019-03-27T01:46:15.230Z,0.00
2019-03-27T01:47:15.202Z,0.00
2019-03-27T01:48:15.175Z,0.00
2019-03-27T01:49:15.166Z,0.00
2019-03-27T01:50:15.151Z,0.00
2019-03-27T01:51:15.155Z,0.00
2019-03-27T01:52:15.191Z,0.00
2019-03-27T01:53:15.117Z,0.00
2019-03-27T01:54:15.109Z,0.00
2019-03-27T01:55:16.086Z,0.00
2019-03-27T01:56:15.118Z,0.00
2019-03-27T01:57:15.114Z,0.00
2019-03-27T01:58:15.081Z,0.00
2019-03-27T01:59:15.054Z,0.00
2019-03-27T02:00:15.058Z,0.00
2019-03-27T02:01:15.056Z,0.00
2019-03-27T02:02:15.056Z,0.00
2019-03-27T02:03:15.014Z,0.00
2019-03-27T02:04:15.034Z,0.00
2019-03-27T02:05:14.986Z,0.00
2019-03-27T02:06:14.977Z,0.00
2019-03-27T02:07:14.990Z,0.00
2019-03-27T02:08:14.986Z,0.00
2019-03-27T02:09:14.964Z,0.00
2019-03-27T02:10:14.941Z,0.00
2019-03-27T02:11:14.921Z,0.00
2019-03-27T02:12:14.907Z,0.00
2019-03-27T02:13:14.929Z,0.00
2019-03-27T02:14:14.889Z,0.00
2019-03-27T02:15:14.919Z,0.00
2019-03-27T02:16:14.880Z,0.00
2019-03-27T02:17:14.857Z,0.00
2019-03-27T02:18:14.858Z,0.00
2019-03-27T02:19:14.837Z,0.00
2019-03-27T02:20:14.835Z,0.00
2019-03-27T02:21:14.824Z,0.00
2019-03-27T02:22:14.818Z,0.00
2019-03-27T02:23:14.795Z,0.00
2019-03-27T02:24:14.783Z,0.00
2019-03-27T02:25:14.766Z,0.00
2019-03-27T02:26:14.770Z,0.00
2019-03-27T02:27:14.777Z,0.00
2019-03-27T02:28:14.759Z,0.00
2019-03-27T02:29:14.737Z,0.00
2019-03-27T02:30:14.713Z,0.00
2019-03-27T02:31:14.703Z,0.00
2019-03-27T02:32:14.705Z,0.00
2019-03-27T02:33:14.711Z,0.00
2019-03-27T02:34:14.691Z,0.00
2019-03-27T02:35:14.670Z,0.00
2019-03-27T02:36:14.645Z,0.00
2019-03-27T02:37:14.633Z,0.00
2019-03-27T02:38:14.637Z,0.00
2019-03-27T02:39:14.629Z,0.00
2019-03-27T02:40:14.645Z,0.00
2019-03-27T02:41:14.604Z,0.00
2019-03-27T02:42:14.582Z,0.00
2019-03-27T02:43:14.570Z,0.00
2019-03-27T02:44:14.572Z,0.00
2019-03-27T02:45:14.554Z,0.00
2019-03-27T02:46:24.399Z,0.00
2019-03-27T02:47:14.548Z,0.00
2019-03-27T02:48:14.523Z,0.00
2019-03-27T02:49:14.507Z,0.00
2019-03-27T02:50:14.499Z,0.00
2019-03-27T02:51:14.616Z,0.00
2019-03-27T02:52:14.467Z,0.00
2019-03-27T02:53:14.458Z,0.00
2019-03-27T02:54:14.452Z,0.00
2019-03-27T02:55:14.437Z,0.00
2019-03-27T02:56:14.439Z,0.00
2019-03-27T02:57:14.427Z,0.00
2019-03-27T02:58:14.407Z,0.00
2019-03-27T02:59:14.403Z,0.00
2019-03-27T03:00:14.379Z,0.00
2019-03-27T03:01:14.373Z,0.00
2019-03-27T03:02:14.395Z,0.00
2019-03-27T03:03:14.379Z,0.00
2019-03-27T03:04:14.339Z,0.00
2019-03-27T03:05:14.339Z,0.00
2019-03-27T03:06:14.322Z,0.00
2019-03-27T03:07:14.310Z,0.00
2019-03-27T03:08:14.317Z,0.00
2019-03-27T03:09:14.361Z,0.00
2019-03-27T03:10:14.275Z,0.00
2019-03-27T03:11:14.278Z,0.00
2019-03-27T03:12:14.320Z,0.00
2019-03-27T03:13:14.270Z,0.00
2019-03-27T03:14:14.246Z,0.00
2019-03-27T03:15:14.233Z,0.00
2019-03-27T03:16:14.204Z,0.00
2019-03-27T03:17:14.208Z,0.00
2019-03-27T03:18:14.200Z,0.00
2019-03-27T03:19:14.236Z,0.00
2019-03-27T03:20:14.180Z,0.00
2019-03-27T03:21:14.171Z,0.00
2019-03-27T03:22:14.144Z,0.00
2019-03-27T03:23:14.133Z,0.00
2019-03-27T03:24:14.122Z,0.00
2019-03-27T03:25:14.123Z,0.00
2019-03-27T03:26:14.113Z,0.00
2019-03-27T03:27:14.107Z,0.00
2019-03-27T03:28:14.110Z,0.00
2019-03-27T03:29:14.082Z,0.00
2019-03-27T03:30:14.051Z,0.00
2019-03-27T03:31:14.056Z,0.00
2019-03-27T03:32:14.044Z,0.00
2019-03-27T03:33:14.042Z,0.00
2019-03-27T03:34:14.162Z,0.00
2019-03-27T03:35:14.015Z,0.00
2019-03-27T03:36:13.990Z,0.00
2019-03-27T03:37:14.007Z,0.00
2019-03-27T03:38:13.990Z,0.00
2019-03-27T03:39:13.974Z,0.00
2019-03-27T03:40:13.939Z,0.00
2019-03-27T03:41:13.930Z,0.00
2019-03-27T03:42:13.918Z,0.00
2019-03-27T03:43:13.933Z,0.00
2019-03-27T03:44:13.927Z,0.00
2019-03-27T03:45:13.886Z,0.00
2019-03-27T03:46:13.872Z,0.00
2019-03-27T03:47:13.866Z,0.00
2019-03-27T03:48:13.854Z,0.00
2019-03-27T03:49:13.862Z,0.00
2019-03-27T03:50:13.864Z,0.00
2019-03-27T03:51:13.818Z,0.00
2019-03-27T03:52:13.812Z,0.00
2019-03-27T03:53:13.830Z,0.00
2019-03-27T03:54:13.802Z,0.00
2019-03-27T03:55:13.816Z,0.00
2019-03-27T03:56:13.794Z,0.00
2019-03-27T03:57:13.761Z,0.00
2019-03-27T03:58:13.746Z,0.00
2019-03-27T03:59:13.737Z,0.00
2019-03-27T04:00:13.746Z,0.00
2019-03-27T04:01:13.726Z,0.00
2019-03-27T04:02:13.720Z,0.00
2019-03-27T04:03:13.740Z,0.00
2019-03-27T04:04:13.676Z,0.00
2019-03-27T04:05:13.683Z,0.00
2019-03-27T04:06:13.682Z,0.00
2019-03-27T04:07:13.662Z,0.00
2019-03-27T04:08:13.670Z,0.00
2019-03-27T04:09:13.662Z,0.00
2019-03-27T04:10:13.609Z,0.00
2019-03-27T04:11:13.597Z,0.00
2019-03-27T04:12:13.603Z,0.00
2019-03-27T04:13:13.610Z,0.00
2019-03-27T04:14:13.590Z,0.00
2019-03-27T04:15:13.560Z,0.00
2019-03-27T04:16:13.541Z,0.00
2019-03-27T04:17:17.323Z,0.00
2019-03-27T04:18:13.530Z,0.00
2019-03-27T04:19:13.524Z,0.00
2019-03-27T04:20:13.501Z,0.00
2019-03-27T04:21:13.488Z,0.00
2019-03-27T04:22:13.494Z,0.00
2019-03-27T04:23:13.492Z,0.00
2019-03-27T04:24:13.470Z,0.00
2019-03-27T04:25:13.466Z,0.00
2019-03-27T04:26:13.449Z,0.00
2019-03-27T04:27:13.424Z,0.00
2019-03-27T04:28:13.440Z,0.00
2019-03-27T04:29:13.412Z,0.00
2019-03-27T04:30:13.405Z,0.00
2019-03-27T04:31:13.398Z,0.00
2019-03-27T04:32:13.387Z,0.00
2019-03-27T04:33:13.398Z,0.00
2019-03-27T04:34:13.365Z,0.00
2019-03-27T04:35:13.348Z,0.00
2019-03-27T04:36:13.342Z,0.00
2019-03-27T04:37:13.310Z,0.00
2019-03-27T04:38:13.298Z,0.00
2019-03-27T04:39:13.316Z,0.00
2019-03-27T04:40:13.286Z,0.00
2019-03-27T04:41:13.286Z,0.00
2019-03-27T04:42:13.267Z,0.00
2019-03-27T04:43:13.308Z,0.00
2019-03-27T04:44:13.233Z,0.00
2019-03-27T04:45:13.231Z,0.00
2019-03-27T04:46:13.221Z,0.00
2019-03-27T04:47:13.222Z,0.00
2019-03-27T04:48:13.198Z,0.00
2019-03-27T04:49:13.179Z,0.00
2019-03-27T04:50:13.186Z,4.00
2019-03-27T04:51:13.157Z,4.00
2019-03-27T04:52:13.146Z,0.00
2019-03-27T04:53:13.148Z,4.00
2019-03-27T04:54:13.133Z,4.00
2019-03-27T04:55:13.115Z,4.00
2019-03-27T04:56:13.112Z,4.00
2019-03-27T04:57:13.092Z,8.00
2019-03-27T04:58:13.085Z,4.00
2019-03-27T04:59:13.088Z,8.00
2019-03-27T05:00:13.090Z,8.00
2019-03-27T05:01:13.096Z,8.00
2019-03-27T05:02:13.050Z,12.00
2019-03-27T05:03:13.028Z,12.00
2019-03-27T05:04:13.038Z,16.00
2019-03-27T05:05:13.022Z,16.00
2019-03-27T05:06:13.026Z,16.00
2019-03-27T05:07:13.805Z,16.00
2019-03-27T05:08:12.968Z,16.00
2019-03-27T05:09:12.965Z,16.00
2019-03-27T05:10:12.962Z,20.00
2019-03-27T05:11:13.020Z,24.00
2019-03-27T05:12:12.967Z,24.00
2019-03-27T05:13:12.922Z,24.00
2019-03-27T05:14:12.901Z,24.00
2019-03-27T05:15:12.896Z,32.00
2019-03-27T05:16:12.912Z,28.00
2019-03-27T05:17:12.892Z,32.00
2019-03-27T05:18:12.864Z,36.00
2019-03-27T05:19:12.853Z,44.00
2019-03-27T05:20:12.837Z,44.00
2019-03-27T05:21:12.824Z,52.00
2019-03-27T05:22:12.842Z,56.00
2019-03-27T05:23:12.864Z,60.00
2019-03-27T05:24:12.795Z,60.00
2019-03-27T05:25:12.791Z,68.00
2019-03-27T05:26:12.777Z,72.00
2019-03-27T05:27:12.762Z,80.00
2019-03-27T05:28:12.782Z,88.00
2019-03-27T05:29:12.765Z,92.00
2019-03-27T05:30:12.727Z,100.00
2019-03-27T05:31:12.717Z,116.00
2019-03-27T05:32:12.718Z,132.00
2019-03-27T05:33:12.733Z,132.00
2019-03-27T05:34:12.697Z,128.00
2019-03-27T05:35:12.694Z,128.00
2019-03-27T05:36:12.659Z,124.00
2019-03-27T05:37:12.651Z,120.00
2019-03-27T05:38:12.637Z,120.00
2019-03-27T05:39:14.697Z,116.00
2019-03-27T05:40:12.633Z,116.00
2019-03-27T05:41:12.624Z,116.00
2019-03-27T05:42:12.597Z,124.00
2019-03-27T05:43:12.583Z,144.00
2019-03-27T05:44:12.572Z,180.00
2019-03-27T05:45:12.600Z,196.00
2019-03-27T05:46:12.571Z,208.00
2019-03-27T05:47:12.617Z,220.00
2019-03-27T05:48:12.533Z,212.00
2019-03-27T05:49:12.520Z,192.00
2019-03-27T05:50:12.530Z,180.00
2019-03-27T05:51:12.535Z,180.00
2019-03-27T05:52:12.495Z,164.00
2019-03-27T05:53:12.500Z,180.00
2019-03-27T05:54:12.464Z,188.00
2019-03-27T05:55:12.449Z,196.00
2019-03-27T05:56:12.459Z,192.00
2019-03-27T05:57:12.482Z,176.00
2019-03-27T05:58:12.439Z,152.00
2019-03-27T05:59:12.407Z,156.00
2019-03-27T06:00:12.395Z,164.00
2019-03-27T06:01:12.402Z,160.00
2019-03-27T06:02:12.377Z,160.00
2019-03-27T06:03:12.392Z,164.00
2019-03-27T06:04:12.376Z,152.00
2019-03-27T06:05:12.347Z,164.00
2019-03-27T06:06:12.336Z,184.00
2019-03-27T06:07:12.322Z,188.00
2019-03-27T06:08:12.324Z,184.00
2019-03-27T06:09:12.310Z,180.00
2019-03-27T06:10:12.306Z,188.00
2019-03-27T06:11:12.283Z,180.00
2019-03-27T06:12:12.282Z,160.00
2019-03-27T06:13:12.251Z,160.00
2019-03-27T06:14:12.251Z,168.00
2019-03-27T06:15:12.270Z,176.00
2019-03-27T06:16:12.249Z,180.00
2019-03-27T06:17:12.260Z,168.00
2019-03-27T06:18:13.239Z,168.00
2019-03-27T06:19:12.184Z,188.00
2019-03-27T06:20:12.284Z,220.00
2019-03-27T06:21:13.108Z,260.00
2019-03-27T06:22:14.983Z,268.00
2019-03-27T06:23:12.182Z,260.00
2019-03-27T06:24:12.135Z,260.00
2019-03-27T06:25:12.123Z,252.00
2019-03-27T06:26:12.124Z,240.00
2019-03-27T06:27:12.128Z,252.00
2019-03-27T06:28:12.115Z,256.00
2019-03-27T06:29:12.124Z,256.00
2019-03-27T06:30:12.066Z,268.00
2019-03-27T06:31:12.059Z,288.00
2019-03-27T06:32:12.046Z,300.00
2019-03-27T06:33:12.084Z,300.00
2019-03-27T06:34:12.065Z,296.00
2019-03-27T06:35:12.009Z,296.00
2019-03-27T06:36:12.615Z,308.00
2019-03-27T06:37:11.993Z,340.00
2019-03-27T06:38:11.997Z,340.00
2019-03-27T06:39:12.140Z,368.00
2019-03-27T06:40:11.957Z,412.00
2019-03-27T06:41:11.939Z,432.00
2019-03-27T06:42:11.941Z,472.00
2019-03-27T06:43:11.939Z,496.00
2019-03-27T06:44:11.921Z,512.00
2019-03-27T06:45:12.125Z,512.00
2019-03-27T06:46:11.887Z,524.00
2019-03-27T06:47:11.874Z,528.00
2019-03-27T06:48:11.863Z,512.00
2019-03-27T06:49:11.869Z,504.00
2019-03-27T06:50:11.876Z,472.00
2019-03-27T06:51:11.855Z,476.00
2019-03-27T06:52:11.820Z,444.00
2019-03-27T06:53:11.808Z,496.00
2019-03-27T06:54:11.797Z,556.00
2019-03-27T06:55:11.806Z,552.00
2019-03-27T06:56:11.799Z,524.00
2019-03-27T06:57:11.763Z,532.00
2019-03-27T06:58:11.754Z,500.00
2019-03-27T06:59:11.741Z,492.00
2019-03-27T07:00:11.740Z,512.00
2019-03-27T07:01:11.748Z,508.00
2019-03-27T07:02:11.720Z,532.00
2019-03-27T07:03:11.704Z,528.00
2019-03-27T07:04:11.692Z,576.00
2019-03-27T07:05:11.673Z,608.00
2019-03-27T07:06:11.667Z,608.00
2019-03-27T07:07:11.693Z,600.00
2019-03-27T07:08:11.656Z,568.00
2019-03-27T07:09:11.665Z,516.00
2019-03-27T07:10:11.634Z,484.00
2019-03-27T07:11:11.619Z,468.00
2019-03-27T07:12:20.926Z,480.00
2019-03-27T07:13:11.595Z,532.00
2019-03-27T07:14:11.606Z,564.00
2019-03-27T07:15:11.572Z,576.00
2019-03-27T07:16:11.554Z,612.00
2019-03-27T07:17:11.541Z,584.00
2019-03-27T07:18:11.544Z,552.00
2019-03-27T07:19:11.542Z,544.00
2019-03-27T07:20:11.540Z,560.00
2019-03-27T07:21:11.497Z,576.00
2019-03-27T07:22:11.487Z,680.00
2019-03-27T07:23:11.477Z,736.00
2019-03-27T07:24:11.477Z,728.00
2019-03-27T07:25:11.496Z,680.00
2019-03-27T07:26:11.508Z,684.00
2019-03-27T07:27:11.433Z,704.00
2019-03-27T07:28:11.420Z,800.00
2019-03-27T07:29:11.408Z,888.00
2019-03-27T07:30:11.410Z,900.00
2019-03-27T07:31:11.398Z,872.00
2019-03-27T07:32:11.376Z,836.00
2019-03-27T07:33:11.375Z,804.00
2019-03-27T07:34:11.358Z,780.00
2019-03-27T07:35:11.366Z,756.00
2019-03-27T07:36:11.350Z,824.00
2019-03-27T07:37:11.328Z,908.00
2019-03-27T07:38:11.307Z,944.00
2019-03-27T07:39:11.629Z,940.00
2019-03-27T07:40:11.289Z,948.00
2019-03-27T07:41:11.278Z,1012.00
2019-03-27T07:42:11.284Z,1056.00
2019-03-27T07:43:11.270Z,1108.00
2019-03-27T07:44:11.242Z,1120.00
2019-03-27T07:45:11.308Z,1208.00
2019-03-27T07:46:11.234Z,1232.00
2019-03-27T07:47:11.249Z,1204.00
2019-03-27T07:48:11.211Z,1104.00
2019-03-27T07:49:11.204Z,996.00
2019-03-27T07:50:11.180Z,920.00
2019-03-27T07:51:11.171Z,972.00
2019-03-27T07:52:11.153Z,1036.00
2019-03-27T07:53:11.158Z,1032.00
2019-03-27T07:54:11.147Z,1116.00
2019-03-27T07:55:19.266Z,1292.00
2019-03-27T07:56:12.127Z,1448.00
2019-03-27T07:57:11.096Z,1572.00
2019-03-27T07:58:11.095Z,1620.00
2019-03-27T07:59:11.085Z,1588.00
2019-03-27T08:00:11.077Z,1536.00
2019-03-27T08:01:11.084Z,1492.00
2019-03-27T08:02:11.052Z,1544.00
2019-03-27T08:03:11.036Z,1436.00
2019-03-27T08:04:14.188Z,1332.00
2019-03-27T08:05:11.031Z,1268.00
2019-03-27T08:06:11.031Z,1260.00
2019-03-27T08:07:11.031Z,1356.00
2019-03-27T08:08:10.975Z,1508.00
2019-03-27T08:09:10.967Z,1520.00
2019-03-27T08:10:10.959Z,1464.00
2019-03-27T08:11:10.975Z,1360.00
2019-03-27T08:12:10.953Z,1248.00
2019-03-27T08:13:10.945Z,1184.00
2019-03-27T08:14:10.912Z,1200.00
2019-03-27T08:15:10.899Z,1228.00
2019-03-27T08:16:10.895Z,1328.00
2019-03-27T08:17:10.903Z,1460.00
2019-03-27T08:18:10.907Z,1476.00
2019-03-27T08:19:10.853Z,1488.00
2019-03-27T08:20:10.846Z,1624.00
2019-03-27T08:21:10.831Z,1704.00
2019-03-27T08:22:10.827Z,1760.00
2019-03-27T08:23:10.828Z,1844.00
2019-03-27T08:24:10.821Z,1868.00
2019-03-27T08:25:10.788Z,1680.00
2019-03-27T08:26:10.774Z,1468.00
2019-03-27T08:27:10.765Z,1324.00
2019-03-27T08:28:10.763Z,1372.00
2019-03-27T08:29:10.772Z,1320.00
2019-03-27T08:30:10.755Z,1368.00
2019-03-27T08:31:10.727Z,1356.00
2019-03-27T08:32:10.714Z,1628.00
2019-03-27T08:33:10.697Z,1980.00
2019-03-27T08:34:11.133Z,1792.00
2019-03-27T08:35:10.693Z,1620.00
2019-03-27T08:36:10.683Z,1540.00
2019-03-27T08:37:10.653Z,1432.00
2019-03-27T08:38:10.641Z,1488.00
2019-03-27T08:39:10.633Z,1624.00
2019-03-27T08:40:10.649Z,1632.00
2019-03-27T08:41:10.631Z,1700.00
2019-03-27T08:42:10.619Z,1604.00
2019-03-27T08:43:20.644Z,1452.00
2019-03-27T08:44:10.580Z,1380.00
2019-03-27T08:45:10.577Z,1400.00
2019-03-27T08:46:10.572Z,1376.00
2019-03-27T08:47:10.560Z,1360.00
2019-03-27T08:48:10.533Z,1236.00
2019-03-27T08:49:21.153Z,1096.00
2019-03-27T08:50:10.524Z,1008.00
2019-03-27T08:51:10.520Z,952.00
2019-03-27T08:52:10.512Z,884.00
2019-03-27T08:53:10.497Z,780.00
2019-03-27T08:54:10.472Z,716.00
2019-03-27T08:55:13.637Z,716.00
2019-03-27T08:56:10.441Z,724.00
2019-03-27T08:57:10.460Z,732.00
2019-03-27T08:58:10.431Z,756.00
2019-03-27T08:59:10.431Z,828.00
2019-03-27T09:00:10.446Z,884.00
2019-03-27T09:01:10.401Z,928.00
2019-03-27T09:02:10.381Z,964.00
2019-03-27T09:03:10.374Z,1000.00
2019-03-27T09:04:10.363Z,1040.00
2019-03-27T09:05:10.377Z,1088.00
2019-03-27T09:06:10.330Z,1132.00
2019-03-27T09:07:10.322Z,1180.00
2019-03-27T09:08:10.309Z,1184.00
2019-03-27T09:09:10.306Z,1284.00
2019-03-27T09:10:10.324Z,1564.00
2019-03-27T09:11:10.303Z,1756.00
2019-03-27T09:12:10.265Z,1740.00
2019-03-27T09:13:10.252Z,1648.00
2019-03-27T09:14:10.248Z,1672.00
2019-03-27T09:15:10.245Z,1744.00
2019-03-27T09:16:10.256Z,1748.00
2019-03-27T09:17:10.235Z,1816.00
2019-03-27T09:18:11.117Z,1900.00
2019-03-27T09:19:10.203Z,1880.00
2019-03-27T09:20:10.199Z,1684.00
2019-03-27T09:21:10.179Z,1472.00
2019-03-27T09:22:10.164Z,1476.00
2019-03-27T09:23:10.170Z,1616.00
2019-03-27T09:24:10.143Z,1528.00
2019-03-27T09:25:10.155Z,1380.00
2019-03-27T09:26:10.109Z,1252.00
2019-03-27T09:27:10.136Z,1204.00
2019-03-27T09:28:10.095Z,1156.00
2019-03-27T09:29:10.081Z,1144.00
2019-03-27T09:30:10.067Z,1284.00
2019-03-27T09:31:10.092Z,1448.00
2019-03-27T09:32:10.047Z,1660.00
2019-03-27T09:33:10.090Z,2040.00
2019-03-27T09:34:10.132Z,2088.00
2019-03-27T09:35:10.010Z,2156.00
2019-03-27T09:36:10.077Z,2340.00
2019-03-27T09:37:10.058Z,2440.00
2019-03-27T09:38:10.032Z,2556.00
2019-03-27T09:39:09.982Z,2636.00
2019-03-27T09:40:09.967Z,2728.00
2019-03-27T09:41:09.945Z,2732.00
2019-03-27T09:42:09.956Z,2700.00
2019-03-27T09:43:09.923Z,2660.00
2019-03-27T09:44:09.914Z,2552.00
2019-03-27T09:45:09.909Z,2376.00
2019-03-27T09:46:09.909Z,2188.00
2019-03-27T09:47:09.930Z,2104.00
2019-03-27T09:48:09.863Z,2044.00
2019-03-27T09:49:09.860Z,1952.00
2019-03-27T09:50:09.865Z,1912.00
2019-03-27T09:51:09.856Z,1860.00
2019-03-27T09:52:09.840Z,1856.00
2019-03-27T09:53:09.821Z,1780.00
2019-03-27T09:54:09.804Z,1612.00
2019-03-27T09:55:09.797Z,1524.00
2019-03-27T09:56:19.033Z,1424.00
2019-03-27T09:57:09.797Z,1476.00
2019-03-27T09:58:09.753Z,1560.00
2019-03-27T09:59:09.747Z,1592.00
2019-03-27T10:00:09.730Z,1492.00
2019-03-27T10:01:09.721Z,1416.00
2019-03-27T10:02:09.734Z,1332.00
2019-03-27T10:03:09.713Z,1364.00
2019-03-27T10:04:09.688Z,1396.00
2019-03-27T10:05:09.725Z,1460.00
2019-03-27T10:06:09.670Z,1516.00
2019-03-27T10:07:09.655Z,1592.00
2019-03-27T10:08:09.664Z,1668.00
2019-03-27T10:09:09.646Z,1852.00
2019-03-27T10:10:09.647Z,1988.00
2019-03-27T10:11:09.620Z,2076.00
2019-03-27T10:12:09.601Z,2292.00
2019-03-27T10:13:09.598Z,2532.00
2019-03-27T10:14:09.586Z,2820.00
2019-03-27T10:15:09.589Z,3092.00
2019-03-27T10:16:09.587Z,3008.00
2019-03-27T10:17:09.542Z,2764.00
2019-03-27T10:18:09.531Z,2416.00
2019-03-27T10:19:09.533Z,2088.00
2019-03-27T10:20:09.521Z,1788.00
2019-03-27T10:21:09.526Z,1604.00
2019-03-27T10:22:09.498Z,1400.00
2019-03-27T10:23:09.478Z,1228.00
2019-03-27T10:24:09.471Z,1048.00
2019-03-27T10:25:09.492Z,932.00
2019-03-27T10:26:09.453Z,868.00
2019-03-27T10:27:09.452Z,832.00
2019-03-27T10:28:09.421Z,840.00
2019-03-27T10:29:09.425Z,908.00
2019-03-27T10:30:09.400Z,980.00
2019-03-27T10:31:09.418Z,1044.00
2019-03-27T10:32:09.399Z,1068.00
2019-03-27T10:33:09.394Z,1060.00
2019-03-27T10:34:09.355Z,1060.00
2019-03-27T10:35:09.391Z,1052.00
2019-03-27T10:36:09.353Z,1052.00
2019-03-27T10:37:09.342Z,1080.00
2019-03-27T10:38:09.329Z,1108.00
2019-03-27T10:39:09.300Z,1072.00
2019-03-27T10:40:09.332Z,980.00
2019-03-27T10:41:09.287Z,900.00
2019-03-27T10:42:09.281Z,872.00
2019-03-27T10:43:09.270Z,884.00
2019-03-27T10:44:09.252Z,916.00
2019-03-27T10:45:09.233Z,1016.00
2019-03-27T10:46:09.230Z,1196.00
2019-03-27T10:47:09.221Z,1336.00
2019-03-27T10:48:09.203Z,1392.00
2019-03-27T10:49:09.208Z,1360.00
2019-03-27T10:50:17.604Z,1332.00
2019-03-27T10:51:10.173Z,1324.00
2019-03-27T10:52:09.156Z,1264.00
2019-03-27T10:53:09.165Z,1252.00
2019-03-27T10:54:09.147Z,1264.00
2019-03-27T10:55:09.130Z,1216.00
2019-03-27T10:56:09.124Z,1172.00
2019-03-27T10:57:09.104Z,1116.00
2019-03-27T10:58:09.098Z,1068.00
2019-03-27T10:59:09.083Z,1024.00
2019-03-27T11:00:09.074Z,1064.00
2019-03-27T11:01:09.080Z,1204.00
2019-03-27T11:02:09.640Z,1408.00
2019-03-27T11:03:09.077Z,1540.00
2019-03-27T11:04:09.032Z,1592.00
2019-03-27T11:05:09.021Z,1536.00
2019-03-27T11:06:09.035Z,1356.00
2019-03-27T11:07:09.009Z,1240.00
2019-03-27T11:08:11.482Z,1192.00
2019-03-27T11:09:08.977Z,1264.00
2019-03-27T11:10:09.018Z,1436.00
2019-03-27T11:11:08.962Z,1628.00
2019-03-27T11:12:08.956Z,1824.00
2019-03-27T11:13:08.942Z,1948.00
2019-03-27T11:14:08.935Z,1944.00
2019-03-27T11:15:08.903Z,1956.00
2019-03-27T11:16:08.906Z,2040.00
2019-03-27T11:17:08.908Z,2156.00
2019-03-27T11:18:08.886Z,2268.00
2019-03-27T11:19:08.867Z,2220.00
2019-03-27T11:20:08.849Z,2180.00
2019-03-27T11:21:08.847Z,2124.00
2019-03-27T11:22:08.832Z,2000.00
2019-03-27T11:23:08.837Z,1896.00
2019-03-27T11:24:08.812Z,1896.00
2019-03-27T11:25:08.822Z,1880.00
2019-03-27T11:26:08.839Z,1836.00
2019-03-27T11:27:08.777Z,1788.00
2019-03-27T11:28:08.758Z,1700.00
2019-03-27T11:29:08.761Z,1620.00
2019-03-27T11:30:08.748Z,1536.00
2019-03-27T11:31:08.759Z,1504.00
2019-03-27T11:32:08.755Z,1500.00
2019-03-27T11:33:08.786Z,1508.00
2019-03-27T11:34:08.693Z,1616.00
2019-03-27T11:35:08.695Z,1724.00
2019-03-27T11:36:08.680Z,1704.00
2019-03-27T11:37:08.692Z,1700.00
2019-03-27T11:38:08.649Z,1748.00
2019-03-27T11:39:08.638Z,1696.00
2019-03-27T11:40:08.628Z,1640.00
2019-03-27T11:41:11.955Z,1672.00
2019-03-27T11:42:08.618Z,1860.00
2019-03-27T11:43:08.614Z,1824.00
2019-03-27T11:44:08.595Z,1764.00
2019-03-27T11:45:08.577Z,1712.00
2019-03-27T11:46:08.572Z,1628.00
2019-03-27T11:47:08.596Z,1492.00
2019-03-27T11:48:08.584Z,1416.00
2019-03-27T11:49:08.553Z,1408.00
2019-03-27T11:50:08.545Z,1520.00
2019-03-27T11:51:08.534Z,1760.00
2019-03-27T11:52:08.514Z,1996.00
2019-03-27T11:53:08.504Z,2248.00
2019-03-27T11:54:08.488Z,2532.00
2019-03-27T11:55:08.461Z,2472.00
2019-03-27T11:56:09.142Z,2112.00
2019-03-27T11:57:08.449Z,1764.00
2019-03-27T11:58:08.461Z,1520.00
2019-03-27T11:59:08.422Z,1392.00
2019-03-27T12:00:08.421Z,1316.00
2019-03-27T12:01:08.419Z,1360.00
2019-03-27T12:02:08.403Z,1448.00
2019-03-27T12:03:08.401Z,1504.00
2019-03-27T12:04:08.369Z,1400.00
2019-03-27T12:05:08.356Z,1296.00
2019-03-27T12:06:08.376Z,1252.00
2019-03-27T12:07:08.328Z,1296.00
2019-03-27T12:08:08.317Z,1284.00
2019-03-27T12:09:08.305Z,1268.00
2019-03-27T12:10:08.315Z,1288.00
2019-03-27T12:11:08.308Z,1276.00
2019-03-27T12:12:08.293Z,1300.00
2019-03-27T12:13:08.263Z,1408.00
2019-03-27T12:14:08.252Z,1372.00
2019-03-27T12:15:08.242Z,1264.00
2019-03-27T12:16:08.686Z,1052.00
2019-03-27T12:17:08.235Z,936.00
2019-03-27T12:18:08.236Z,876.00
2019-03-27T12:19:08.201Z,800.00
2019-03-27T12:20:08.183Z,824.00
2019-03-27T12:21:08.175Z,844.00
2019-03-27T12:22:08.177Z,880.00
2019-03-27T12:23:08.176Z,1016.00
2019-03-27T12:24:08.144Z,1156.00
2019-03-27T12:25:08.151Z,1348.00
2019-03-27T12:26:08.139Z,1644.00
2019-03-27T12:27:08.108Z,2080.00
2019-03-27T12:28:08.128Z,2332.00
2019-03-27T12:29:08.119Z,2420.00
2019-03-27T12:30:08.077Z,2360.00
2019-03-27T12:31:08.147Z,2364.00
2019-03-27T12:32:08.052Z,2192.00
2019-03-27T12:33:08.052Z,2128.00
2019-03-27T12:34:08.048Z,2156.00
2019-03-27T12:35:08.056Z,2048.00
2019-03-27T12:36:08.048Z,1892.00
2019-03-27T12:37:08.019Z,1700.00
2019-03-27T12:38:07.983Z,1516.00
2019-03-27T12:39:07.985Z,1388.00